Time;durP1;ratioP1;P1;durP2;ratioP2;P2;SDS_P1;SDS_P2;PMS_P1;PMS_P2;Temp;Humidity;BMP_temperature;BMP_pressure;BME280_temperature;BME280_humidity;BME280_pressure;Samples;Min_cycle;Max_cycle;Signal;HPM_P1;HPM_P2
2021/08/18 00:02:24;;;;;;;6.53;2.75;;;;;;;16.85;77.07;101614.75;4887999;29;20040;-84
2021/08/18 00:04:49;;;;;;;5.88;3.10;;;;;;;16.86;77.17;101616.44;4904254;29;20041;-86
2021/08/18 00:07:16;;;;;;;5.63;2.92;;;;;;;16.85;77.25;101618.25;4905764;29;20031;-84
2021/08/18 00:09:44;;;;;;;7.40;3.00;;;;;;;16.89;77.08;101625.13;4905727;29;20059;-86
2021/08/18 00:12:15;;;;;;;5.60;2.47;;;;;;;16.82;77.21;101621.13;4905706;29;20468;-84
2021/08/18 00:14:43;;;;;;;4.38;2.63;;;;;;;16.80;77.51;101618.56;4905572;29;20025;-84
2021/08/18 00:17:10;;;;;;;6.15;2.42;;;;;;;16.80;77.29;101620.41;4901924;29;20049;-84
2021/08/18 00:19:37;;;;;;;5.80;2.78;;;;;;;16.85;76.92;101618.25;4905675;29;20037;-88
2021/08/18 00:22:04;;;;;;;4.55;2.45;;;;;;;16.79;76.82;101626.69;4905707;29;20028;-86
2021/08/18 00:24:31;;;;;;;7.38;2.83;;;;;;;16.65;76.91;101628.47;4872948;29;20452;-86
2021/08/18 00:26:58;;;;;;;8.07;2.80;;;;;;;16.80;76.32;101626.56;4887270;29;20124;-86
2021/08/18 00:29:23;;;;;;;4.75;2.45;;;;;;;16.76;76.44;101624.22;4904839;29;20088;-85
2021/08/18 00:31:50;;;;;;;5.35;2.63;;;;;;;16.82;75.61;101621.13;4889797;29;20024;-85
2021/08/18 00:34:17;;;;;;;5.72;2.65;;;;;;;16.86;75.38;101621.78;4921211;23;20044;-88
2021/08/18 00:36:43;;;;;;;6.95;2.80;;;;;;;16.80;75.45;101615.06;4911416;29;20054;-89
2021/08/18 00:39:08;;;;;;;8.63;2.63;;;;;;;16.79;75.13;101624.00;4927476;29;20020;-84
2021/08/18 00:41:33;;;;;;;4.80;2.90;;;;;;;16.68;75.46;101611.38;4897484;29;20024;-83
2021/08/18 00:43:59;;;;;;;6.18;2.85;;;;;;;16.66;75.35;101614.16;4894601;29;20026;-83
2021/08/18 00:46:24;;;;;;;6.40;3.15;;;;;;;16.71;74.92;101613.84;4914644;29;20027;-83
2021/08/18 00:48:50;;;;;;;8.05;2.90;;;;;;;16.79;74.63;101611.53;4914853;29;20093;-85
2021/08/18 00:51:16;;;;;;;6.45;2.80;;;;;;;16.86;74.16;101616.44;4895282;29;20051;-84
2021/08/18 00:53:43;;;;;;;6.88;3.00;;;;;;;16.81;73.93;101614.97;4909993;29;20027;-85
2021/08/18 00:56:10;;;;;;;6.00;2.72;;;;;;;16.80;74.10;101618.56;4893570;29;20126;-84
2021/08/18 00:58:35;;;;;;;7.15;3.33;;;;;;;16.73;74.16;101608.41;4894788;29;20494;-84
2021/08/18 01:01:01;;;;;;;7.38;3.10;;;;;;;16.89;73.39;101608.22;4894622;29;20103;-84
2021/08/18 01:03:28;;;;;;;7.30;2.90;;;;;;;16.74;73.75;101616.31;4927019;29;20024;-84
2021/08/18 01:05:53;;;;;;;8.50;3.20;;;;;;;16.87;73.29;101611.00;4899938;29;20119;-83
2021/08/18 01:08:19;;;;;;;7.93;3.17;;;;;;;17.03;72.96;101596.59;4901047;29;20040;-83
2021/08/18 01:10:45;;;;;;;6.95;3.47;;;;;;;16.92;73.12;101598.19;4932410;29;20059;-85
2021/08/18 01:13:10;;;;;;;8.80;3.25;;;;;;;16.84;73.64;101597.84;4911910;29;20055;-83
2021/08/18 01:15:36;;;;;;;7.22;3.50;;;;;;;16.88;73.50;101602.03;4910009;29;20032;-84
2021/08/18 01:18:03;;;;;;;5.68;2.95;;;;;;;16.89;73.63;101603.75;4942301;29;20028;-84
2021/08/18 01:20:33;;;;;;;11.82;3.35;;;;;;;16.89;73.59;101601.09;4942018;29;20099;-86
2021/08/18 01:23:04;;;;;;;8.75;3.80;;;;;;;16.93;73.45;101602.56;4909561;29;20165;-83
2021/08/18 01:25:30;;;;;;;6.93;3.85;;;;;;;16.78;73.61;101601.81;4924345;29;20038;-84
2021/08/18 01:27:58;;;;;;;10.60;3.63;;;;;;;16.88;73.26;101606.53;4924314;29;20043;-83
2021/08/18 01:30:24;;;;;;;7.40;3.67;;;;;;;16.77;73.64;101609.94;4893744;29;20075;-84
2021/08/18 01:32:54;;;;;;;9.43;3.63;;;;;;;16.92;73.23;101602.69;4925095;29;20036;-85
2021/08/18 01:35:29;;;;;;;7.80;3.92;;;;;;;16.76;73.80;101609.06;4924619;29;20408;-84
2021/08/18 01:37:54;;;;;;;8.55;3.67;;;;;;;16.73;73.66;101609.25;4941368;29;20036;-84
2021/08/18 01:40:20;;;;;;;6.45;3.72;;;;;;;16.86;73.11;101611.09;4941579;29;20122;-85
2021/08/18 01:42:46;;;;;;;9.38;3.90;;;;;;;16.91;73.04;101611.66;4941616;29;20550;-85
2021/08/18 01:45:20;;;;;;;10.05;4.35;;;;;;;16.82;73.17;101613.13;4908891;29;20038;-84
2021/08/18 01:47:47;;;;;;;7.82;4.10;;;;;;;16.86;73.03;101611.97;4909951;29;20048;-84
2021/08/18 01:50:12;;;;;;;9.65;3.90;;;;;;;16.87;73.13;101604.78;4924533;29;20505;-84
2021/08/18 01:52:39;;;;;;;9.57;3.92;;;;;;;16.96;72.82;101606.84;4909066;29;20024;-84
2021/08/18 01:55:06;;;;;;;7.05;3.40;;;;;;;16.80;73.37;101599.03;4924564;29;20133;-83
2021/08/18 01:57:32;;;;;;;7.57;3.78;;;;;;;16.83;73.46;101614.84;4895616;29;20395;-84
2021/08/18 01:59:58;;;;;;;7.80;3.47;;;;;;;16.90;73.32;101601.91;4927820;29;20428;-84
2021/08/18 02:02:28;;;;;;;10.45;3.80;;;;;;;16.86;73.44;101597.75;4928016;29;20042;-85
2021/08/18 02:04:54;;;;;;;8.68;3.33;;;;;;;16.82;73.46;101602.44;4912373;29;20034;-85
2021/08/18 02:07:19;;;;;;;8.38;3.55;;;;;;;16.79;73.69;101600.84;4912438;29;20127;-84
2021/08/18 02:09:45;;;;;;;7.45;3.47;;;;;;;16.93;73.42;101596.38;4912255;29;20497;-86
2021/08/18 02:12:11;;;;;;;7.22;3.50;;;;;;;16.87;72.50;101586.97;4912270;29;20032;-84
2021/08/18 02:14:37;;;;;;;5.32;3.20;;;;;;;16.78;72.30;101585.78;4928705;29;20035;-85
2021/08/18 02:17:03;;;;;;;6.18;2.90;;;;;;;16.69;72.19;101592.59;4928773;29;20036;-86
2021/08/18 02:19:29;;;;;;;5.32;2.90;;;;;;;16.57;71.47;101588.06;4913227;29;20051;-86
2021/08/18 02:21:58;;;;;;;6.05;2.80;;;;;;;16.50;71.14;101592.13;4940223;29;20467;-85
2021/08/18 02:24:24;;;;;;;6.40;2.47;;;;;;;16.44;70.08;101588.03;4957535;29;20031;-85
2021/08/18 02:26:49;;;;;;;3.85;2.17;;;;;;;16.37;68.75;101594.72;4939277;29;20042;-84
2021/08/18 02:29:15;;;;;;;3.70;2.13;;;;;;;16.20;68.57;101594.03;4945719;29;20032;-85
2021/08/18 02:31:41;;;;;;;4.45;2.35;;;;;;;16.30;67.99;101589.78;4928208;29;20102;-85
2021/08/18 02:34:09;;;;;;;3.97;2.20;;;;;;;16.29;68.14;101590.75;4927730;29;20036;-83
2021/08/18 02:36:39;;;;;;;4.28;2.00;;;;;;;16.28;68.36;101589.06;4945062;29;20044;-84
2021/08/18 02:39:05;;;;;;;3.83;2.47;;;;;;;16.25;68.51;101588.41;4911731;29;20042;-84
2021/08/18 02:41:31;;;;;;;5.10;2.20;;;;;;;16.23;68.80;101588.50;4945808;29;20032;-84
2021/08/18 02:43:58;;;;;;;4.60;2.30;;;;;;;16.22;69.49;101592.13;4945317;29;20023;-84
2021/08/18 02:46:24;;;;;;;4.28;2.20;;;;;;;16.26;69.64;101590.97;4927741;29;20032;-84
2021/08/18 02:48:51;;;;;;;3.15;2.30;;;;;;;16.31;69.63;101588.00;4944319;29;20047;-84
2021/08/18 02:51:19;;;;;;;4.05;2.53;;;;;;;16.30;70.02;101588.97;4944317;29;20058;-83
2021/08/18 02:53:45;;;;;;;3.47;2.33;;;;;;;16.33;70.37;101587.88;4926962;29;20439;-83
2021/08/18 02:56:12;;;;;;;4.53;2.55;;;;;;;16.28;71.07;101591.72;4927148;29;20043;-83
2021/08/18 02:58:37;;;;;;;5.53;2.80;;;;;;;16.31;71.52;101590.66;4944191;29;20023;-85
2021/08/18 03:01:03;;;;;;;5.55;2.67;;;;;;;16.44;71.51;101577.38;4943385;29;20454;-85
2021/08/18 03:03:30;;;;;;;5.53;2.78;;;;;;;16.39;71.84;101584.81;4944441;29;20055;-84
2021/08/18 03:05:57;;;;;;;5.72;2.35;;;;;;;16.44;72.06;101588.88;4911728;29;20149;-84
2021/08/18 03:08:22;;;;;;;4.18;2.58;;;;;;;16.38;72.33;101591.13;4943925;29;20039;-84
2021/08/18 03:10:48;;;;;;;5.28;2.72;;;;;;;16.46;72.38;101587.94;4944405;29;20032;-84
2021/08/18 03:13:16;;;;;;;5.00;2.75;;;;;;;16.43;72.66;101589.84;4944352;29;20394;-84
2021/08/18 03:15:41;;;;;;;5.85;2.80;;;;;;;16.33;72.95;101591.44;4944453;29;20127;-85
2021/08/18 03:18:08;;;;;;;5.07;2.58;;;;;;;16.37;72.95;101581.38;4945172;29;20111;-85
2021/08/18 03:20:36;;;;;;;5.15;2.58;;;;;;;16.48;72.47;101583.34;4945820;29;20395;-83
2021/08/18 03:23:02;;;;;;;5.07;2.55;;;;;;;16.48;72.22;101586.88;4929281;29;20027;-83
2021/08/18 03:25:27;;;;;;;6.13;3.08;;;;;;;16.50;72.18;101594.78;4946284;29;20447;-83
2021/08/18 03:27:56;;;;;;;5.00;2.60;;;;;;;16.62;71.85;101587.75;4927039;29;20036;-84
2021/08/18 03:30:21;;;;;;;5.80;2.55;;;;;;;16.61;71.48;101599.41;4926341;29;20457;-85
2021/08/18 03:32:48;;;;;;;4.20;2.42;;;;;;;16.69;71.06;101587.25;4943676;29;20031;-84
2021/08/18 03:35:13;;;;;;;5.38;2.83;;;;;;;16.73;70.74;101587.91;4942781;29;20051;-85
2021/08/18 03:37:39;;;;;;;6.35;2.60;;;;;;;16.62;71.33;101585.94;4926422;29;20044;-83
2021/08/18 03:40:05;;;;;;;6.00;2.65;;;;;;;16.73;70.94;101581.69;4943249;29;20035;-83
2021/08/18 03:42:31;;;;;;;3.95;2.35;;;;;;;16.69;71.07;101591.75;4925879;29;20103;-82
2021/08/18 03:44:56;;;;;;;6.25;2.90;;;;;;;16.69;71.03;101589.06;4942430;29;20106;-82
2021/08/18 03:47:21;;;;;;;5.28;2.80;;;;;;;16.62;71.61;101587.75;4941922;29;20036;-83
2021/08/18 03:49:48;;;;;;;6.38;2.63;;;;;;;16.67;71.34;101583.84;4925135;29;20043;-83
2021/08/18 03:52:15;;;;;;;5.57;2.90;;;;;;;16.78;71.26;101593.78;4941457;29;20570;-83
2021/08/18 03:54:40;;;;;;;4.45;2.33;;;;;;;16.67;71.56;101590.97;4941828;29;20036;-83
2021/08/18 03:57:07;;;;;;;7.07;2.67;;;;;;;16.81;71.42;101587.38;4941894;29;20382;-83
2021/08/18 03:59:33;;;;;;;4.72;2.80;;;;;;;16.78;71.86;101583.13;4940908;29;20063;-83
2021/08/18 04:01:59;;;;;;;6.53;3.08;;;;;;;16.85;71.81;101588.03;4942397;29;20023;-84
2021/08/18 04:04:25;;;;;;;7.68;3.22;;;;;;;16.77;72.41;101583.22;4941832;29;20103;-85
2021/08/18 04:06:50;;;;;;;4.97;2.83;;;;;;;16.79;72.53;101587.47;4941683;29;20142;-84
2021/08/18 04:09:19;;;;;;;7.03;3.30;;;;;;;16.84;72.90;101580.97;4939702;29;20090;-83
2021/08/18 04:11:46;;;;;;;6.25;2.78;;;;;;;16.80;73.35;101583.84;4941682;29;20110;-85
2021/08/18 04:14:11;;;;;;;8.88;3.20;;;;;;;16.80;73.34;101583.84;4941470;29;20372;-84
2021/08/18 04:16:37;;;;;;;4.65;3.03;;;;;;;16.83;73.59;101585.47;4941030;29;20052;-85
2021/08/18 04:19:02;;;;;;;4.28;3.03;;;;;;;16.81;73.69;101577.56;4941155;29;20431;-84
2021/08/18 04:21:28;;;;;;;5.50;2.97;;;;;;;16.80;74.14;101583.00;4940789;29;20044;-83
2021/08/18 04:23:53;;;;;;;6.03;3.30;;;;;;;16.90;73.94;101572.53;4941292;29;20414;-84
2021/08/18 04:26:20;;;;;;;4.55;3.22;;;;;;;16.81;74.36;101576.69;4940603;29;20052;-84
2021/08/18 04:28:45;;;;;;;4.20;3.22;;;;;;;16.87;74.32;101578.94;4908249;29;20047;-84
2021/08/18 04:31:11;;;;;;;7.13;3.15;;;;;;;16.94;74.08;101582.06;4908801;29;20134;-83
2021/08/18 04:33:38;;;;;;;6.70;3.25;;;;;;;16.97;74.16;101579.19;4924268;29;20119;-83
2021/08/18 04:36:06;;;;;;;7.80;3.30;;;;;;;16.87;74.61;101583.44;4943257;23;20063;-82
2021/08/18 04:38:31;;;;;;;7.18;3.17;;;;;;;17.01;74.02;101583.34;4960422;29;20055;-84
2021/08/18 04:40:57;;;;;;;6.30;3.35;;;;;;;16.93;74.40;101580.34;4960245;28;20406;-84
2021/08/18 04:43:23;;;;;;;8.18;3.60;;;;;;;17.11;74.04;101586.28;4960192;29;20097;-83
2021/08/18 04:45:49;;;;;;;6.57;3.58;;;;;;;17.04;74.03;101585.81;4959609;29;20127;-85
2021/08/18 04:48:16;;;;;;;7.68;3.55;;;;;;;17.15;73.75;101578.88;4959013;29;20039;-85
2021/08/18 04:50:42;;;;;;;6.05;3.50;;;;;;;17.19;73.75;101583.06;4960992;29;20023;-84
2021/08/18 04:53:11;;;;;;;4.30;2.97;;;;;;;17.02;74.37;101576.19;4960355;29;20042;-84
2021/08/18 04:55:43;;;;;;;5.10;3.47;;;;;;;16.97;74.50;101579.19;4959192;29;20047;-84
2021/08/18 04:58:09;;;;;;;6.70;3.67;;;;;;;17.00;74.46;101576.31;4960244;29;20050;-84
2021/08/18 05:00:36;;;;;;;5.80;3.65;;;;;;;17.13;73.95;101575.47;4959216;29;20054;-84
2021/08/18 05:03:02;;;;;;;5.85;3.20;;;;;;;16.98;74.34;101583.56;4958898;29;20043;-84
2021/08/18 05:05:27;;;;;;;5.05;3.38;;;;;;;17.12;74.11;101574.63;4960608;29;20086;-84
2021/08/18 05:07:56;;;;;;;5.35;3.40;;;;;;;17.18;73.64;101578.66;4960164;29;20096;-84
2021/08/18 05:10:23;;;;;;;7.22;3.30;;;;;;;17.25;73.45;101568.41;4960409;29;20030;-84
2021/08/18 05:12:48;;;;;;;11.48;3.95;;;;;;;17.31;73.24;101573.34;4960245;29;20031;-85
2021/08/18 05:15:14;;;;;;;4.60;3.28;;;;;;;17.33;73.23;101575.91;4960086;29;20031;-84
2021/08/18 05:17:39;;;;;;;5.35;3.40;;;;;;;17.33;73.29;101571.41;4959138;29;20378;-84
2021/08/18 05:20:06;;;;;;;7.40;3.80;;;;;;;17.40;72.92;101569.19;4956468;29;20047;-84
2021/08/18 05:22:33;;;;;;;4.93;3.75;;;;;;;17.36;73.26;101570.34;4958819;29;20403;-84
2021/08/18 05:24:58;;;;;;;6.03;3.58;;;;;;;17.53;72.99;101567.31;4960492;29;20083;-84
2021/08/18 05:27:24;;;;;;;6.28;3.78;;;;;;;17.46;72.74;101571.41;4958823;29;20042;-84
2021/08/18 05:29:50;;;;;;;7.13;3.47;;;;;;;17.52;72.85;101575.47;4958776;29;20034;-84
2021/08/18 05:32:16;;;;;;;5.53;4.18;;;;;;;17.46;72.84;101560.72;4971063;28;20087;-84
2021/08/18 05:34:42;;;;;;;6.18;3.70;;;;;;;17.54;72.80;101569.03;4972881;29;20058;-83
2021/08/18 05:37:08;;;;;;;4.50;3.67;;;;;;;17.56;72.54;101572.47;4971622;29;20039;-83
2021/08/18 05:39:34;;;;;;;7.07;3.50;;;;;;;17.38;73.21;101576.44;4957891;29;20474;-84
2021/08/18 05:41:59;;;;;;;7.80;3.83;;;;;;;17.41;72.99;101566.41;4962571;29;20027;-83
2021/08/18 05:44:25;;;;;;;8.57;3.88;;;;;;;17.56;72.76;101571.59;4962305;29;20031;-85
2021/08/18 05:46:52;;;;;;;8.20;3.70;;;;;;;17.49;72.59;101576.53;4962633;28;20046;-88
2021/08/18 05:49:20;;;;;;;9.20;3.80;;;;;;;17.63;72.15;101570.22;4963946;29;20122;-87
2021/08/18 05:51:49;;;;;;;5.97;3.95;;;;;;;17.59;72.19;101573.22;4962367;29;20031;-88
2021/08/18 05:54:15;;;;;;;6.80;3.65;;;;;;;17.78;71.78;101570.03;4963160;29;20027;-87
2021/08/18 05:56:40;;;;;;;4.53;3.42;;;;;;;17.81;71.85;101573.38;4962969;28;20046;-88
2021/08/18 05:59:06;;;;;;;7.97;3.60;;;;;;;17.73;71.97;101559.69;4961974;29;20074;-85
2021/08/18 06:01:34;;;;;;;8.40;3.38;;;;;;;17.89;71.57;101563.91;4963091;29;20035;-86
2021/08/18 06:04:01;;;;;;;7.43;3.40;;;;;;;17.91;71.34;101567.34;4963002;29;20034;-85
2021/08/18 06:06:28;;;;;;;5.38;3.83;;;;;;;17.98;71.61;101567.75;4962111;29;20019;-86
2021/08/18 06:08:54;;;;;;;5.13;3.45;;;;;;;17.79;72.00;101572.59;4961789;29;20118;-86
2021/08/18 06:11:20;;;;;;;3.53;3.22;;;;;;;17.86;72.06;101572.16;4961530;29;20069;-85
2021/08/18 06:13:45;;;;;;;5.20;3.40;;;;;;;17.81;72.18;101577.84;4957903;29;20444;-85
2021/08/18 06:16:10;;;;;;;5.10;3.40;;;;;;;17.98;71.80;101571.25;4957737;29;20075;-84
2021/08/18 06:18:36;;;;;;;4.13;3.20;;;;;;;18.14;71.45;101568.34;4958088;29;20050;-84
2021/08/18 06:21:01;;;;;;;4.15;2.70;;;;;;;18.23;71.35;101574.00;4958092;29;20031;-84
2021/08/18 06:23:29;;;;;;;4.70;3.25;;;;;;;17.92;72.27;101577.06;4957680;29;20023;-85
2021/08/18 06:25:55;;;;;;;4.47;2.65;;;;;;;18.16;71.53;101576.28;4956935;29;20126;-85
2021/08/18 06:28:21;;;;;;;5.68;2.60;;;;;;;18.24;71.32;101576.56;4956847;29;20140;-85
2021/08/18 06:30:47;;;;;;;4.95;2.60;;;;;;;18.11;71.25;101579.28;4959102;29;20038;-84
2021/08/18 06:33:13;;;;;;;4.72;2.33;;;;;;;18.33;70.96;101579.50;4944091;29;20043;-85
2021/08/18 06:35:38;;;;;;;5.28;2.80;;;;;;;18.33;70.72;101566.13;4944651;29;20054;-84
2021/08/18 06:38:04;;;;;;;5.68;2.53;;;;;;;18.63;69.93;101576.38;4943874;29;20486;-84
2021/08/18 06:40:29;;;;;;;5.40;2.58;;;;;;;18.79;69.12;101583.22;4958551;29;20451;-84
2021/08/18 06:42:54;;;;;;;4.15;2.90;;;;;;;18.79;69.34;101573.38;4956648;28;20362;-85
2021/08/18 06:45:21;;;;;;;5.07;2.80;;;;;;;19.00;68.73;101574.50;4940627;29;20499;-85
2021/08/18 06:47:46;;;;;;;6.00;2.67;;;;;;;18.99;68.77;101586.19;4955407;29;20074;-83
2021/08/18 06:50:12;;;;;;;8.05;3.15;;;;;;;18.90;69.50;101585.09;4957448;29;20035;-83
2021/08/18 06:52:37;;;;;;;4.35;3.22;;;;;;;18.81;70.10;101575.94;4954437;29;20635;-85
2021/08/18 06:55:04;;;;;;;5.95;3.80;;;;;;;18.97;69.50;101588.16;4953982;29;20046;-85
2021/08/18 06:57:30;;;;;;;8.00;3.38;;;;;;;19.25;68.32;101586.03;4956962;29;20023;-82
2021/08/18 06:59:55;;;;;;;6.93;3.45;;;;;;;19.22;68.83;101589.78;4956061;29;20027;-82
2021/08/18 07:02:20;;;;;;;4.38;3.50;;;;;;;19.14;68.51;101585.03;4956133;29;20038;-83
2021/08/18 07:04:46;;;;;;;5.75;4.03;;;;;;;19.33;68.20;101582.75;4957172;29;20034;-83
2021/08/18 07:07:12;;;;;;;6.20;3.58;;;;;;;19.33;67.97;101588.09;4957202;29;20035;-83
2021/08/18 07:09:37;;;;;;;5.85;3.78;;;;;;;19.18;68.50;101588.31;4956551;29;20031;-83
2021/08/18 07:12:03;;;;;;;5.78;3.70;;;;;;;19.67;67.17;101588.94;4956854;29;20127;-84
2021/08/18 07:14:28;;;;;;;5.93;3.72;;;;;;;19.84;66.69;101584.06;4955590;29;20107;-83
2021/08/18 07:16:54;;;;;;;4.90;3.78;;;;;;;19.99;66.15;101584.63;4956672;29;20042;-83
2021/08/18 07:19:19;;;;;;;5.22;3.50;;;;;;;20.21;65.64;101588.25;4956908;29;20053;-83
2021/08/18 07:21:44;;;;;;;6.45;3.63;;;;;;;19.91;65.93;101590.63;4956761;29;20101;-83
2021/08/18 07:24:10;;;;;;;4.03;3.17;;;;;;;19.87;65.45;101583.81;4955401;29;20033;-83
2021/08/18 07:26:35;;;;;;;3.80;3.20;;;;;;;19.84;65.96;101586.75;4955108;29;20039;-82
2021/08/18 07:29:01;;;;;;;7.38;3.30;;;;;;;20.21;64.70;101577.50;4956225;29;20035;-83
2021/08/18 07:31:26;;;;;;;6.22;3.72;;;;;;;19.85;65.77;101588.44;4956457;29;20032;-84
2021/08/18 07:33:52;;;;;;;6.47;3.38;;;;;;;20.36;64.11;101579.91;4956712;29;20027;-84
2021/08/18 07:36:17;;;;;;;6.13;3.65;;;;;;;19.86;65.54;101576.72;4956242;29;20055;-85
2021/08/18 07:38:43;;;;;;;4.38;3.25;;;;;;;20.41;63.62;101573.16;4954940;29;20046;-83
2021/08/18 07:41:08;;;;;;;6.35;3.53;;;;;;;20.35;63.68;101576.38;4956371;29;20015;-83
2021/08/18 07:43:33;;;;;;;4.60;3.42;;;;;;;19.98;64.81;101577.56;4956805;29;20130;-83
2021/08/18 07:45:59;;;;;;;7.10;3.22;;;;;;;20.15;64.54;101573.50;4955869;29;20070;-83
2021/08/18 07:48:25;;;;;;;6.82;3.90;;;;;;;20.34;64.44;101580.03;4957958;29;20104;-83
2021/08/18 07:50:50;;;;;;;4.50;3.47;;;;;;;20.17;65.11;101576.94;4958743;29;20027;-82
2021/08/18 07:53:16;;;;;;;6.88;3.35;;;;;;;19.88;64.91;101572.09;4958280;28;20031;-83
2021/08/18 07:55:41;;;;;;;4.03;3.20;;;;;;;19.95;65.15;101579.63;4957969;29;20471;-82
2021/08/18 07:58:06;;;;;;;3.83;3.47;;;;;;;20.00;64.69;101577.44;4958689;29;20035;-82
2021/08/18 08:00:37;;;;;;;4.95;3.28;;;;;;;20.09;64.73;101578.53;4958751;29;20385;-82
2021/08/18 08:03:02;;;;;;;4.28;3.20;;;;;;;19.97;64.64;101577.69;4957362;29;20455;-81
2021/08/18 08:05:28;;;;;;;6.15;3.13;;;;;;;19.96;64.48;101584.00;4956721;29;20035;-87
2021/08/18 08:07:53;;;;;;;4.50;3.20;;;;;;;20.09;64.96;101581.22;4955384;29;20035;-83
2021/08/18 08:10:18;;;;;;;6.15;2.88;;;;;;;20.26;64.03;101571.75;4954887;29;20540;-85
2021/08/18 08:12:44;;;;;;;3.97;3.22;;;;;;;20.63;63.13;101562.47;4956223;29;20027;-84
2021/08/18 08:15:10;;;;;;;4.38;2.95;;;;;;;20.67;62.36;101569.28;4956252;28;20028;-85
2021/08/18 08:17:36;;;;;;;5.80;3.20;;;;;;;20.70;62.33;101570.84;4956022;29;20028;-85
2021/08/18 08:20:01;;;;;;;5.50;3.20;;;;;;;20.98;62.07;101563.13;4955405;29;20043;-85
2021/08/18 08:22:27;;;;;;;5.07;2.90;;;;;;;20.86;62.62;101568.56;4954473;29;20059;-85
2021/08/18 08:24:52;;;;;;;4.47;2.85;;;;;;;21.27;61.38;101571.34;4954582;29;20053;-84
2021/08/18 08:27:18;;;;;;;5.97;3.38;;;;;;;21.42;60.89;101573.66;4956289;29;20035;-87
2021/08/18 08:29:43;;;;;;;4.85;3.33;;;;;;;21.08;61.92;101572.09;4955575;29;20504;-84
2021/08/18 08:32:09;;;;;;;7.05;3.30;;;;;;;21.26;61.28;101566.94;4955474;29;20034;-84
2021/08/18 08:34:35;;;;;;;5.30;3.40;;;;;;;20.88;62.44;101565.75;4959144;23;20103;-84
2021/08/18 08:37:00;;;;;;;4.60;3.13;;;;;;;20.36;63.79;101564.66;4934393;29;20039;-84
2021/08/18 08:39:26;;;;;;;3.95;3.30;;;;;;;20.21;64.49;101555.22;4922319;29;20030;-84
2021/08/18 08:41:51;;;;;;;4.93;3.20;;;;;;;20.13;65.29;101558.53;4955342;29;20019;-84
2021/08/18 08:44:21;;;;;;;8.00;3.47;;;;;;;20.09;65.77;101567.78;4955233;29;20027;-85
2021/08/18 08:46:53;;;;;;;5.95;3.75;;;;;;;19.58;67.97;101562.00;4938296;29;20055;-83
2021/08/18 08:49:19;;;;;;;8.50;3.40;;;;;;;19.74;68.09;101569.66;4938819;29;20093;-84
2021/08/18 08:51:45;;;;;;;4.85;3.97;;;;;;;19.84;67.81;101567.94;4907321;29;20137;-84
2021/08/18 08:54:11;;;;;;;4.60;3.88;;;;;;;19.61;67.83;101567.13;4923974;29;20511;-83
2021/08/18 08:56:36;;;;;;;7.85;3.90;;;;;;;19.93;66.88;101566.34;4924280;29;20031;-84
2021/08/18 08:59:02;;;;;;;6.65;3.90;;;;;;;19.95;67.10;101561.72;4929240;29;20033;-82
2021/08/18 09:01:54;;;;;;;8.32;3.88;;;;;;;19.94;66.81;101562.66;4962102;29;20019;-82
2021/08/18 09:04:39;;;;;;;4.37;3.70;;;;;;;20.09;65.44;101562.41;4952839;29;20035;-85
2021/08/18 09:07:09;;;;;;;5.53;3.17;;;;;;;20.17;64.93;101560.81;4935083;29;20030;-81
2021/08/18 09:09:35;;;;;;;3.60;2.70;;;;;;;20.33;63.84;101564.91;4967968;29;20505;-83
2021/08/18 09:12:08;;;;;;;4.30;2.60;;;;;;;20.41;61.88;101564.28;4908170;29;20035;-84
2021/08/18 09:14:33;;;;;;;3.45;2.50;;;;;;;20.53;62.16;101557.00;4938168;29;20027;-83
2021/08/18 09:16:58;;;;;;;4.65;2.97;;;;;;;20.63;61.30;101552.53;4955643;29;20090;-84
2021/08/18 09:19:29;;;;;;;5.90;3.25;;;;;;;20.29;62.52;101555.41;4955028;29;20028;-84
2021/08/18 09:21:55;;;;;;;5.18;2.20;;;;;;;20.00;63.39;101561.31;4937916;29;20522;-83
2021/08/18 09:24:22;;;;;;;4.15;2.47;;;;;;;19.93;63.90;101566.34;4954911;29;20027;-84
2021/08/18 09:27:14;;;;;;;3.88;2.65;;;;;;;19.70;65.56;101563.72;4955376;29;20027;-84
2021/08/18 09:29:42;;;;;;;4.77;2.83;;;;;;;19.88;65.10;101555.97;4949876;29;20055;-83
2021/08/18 09:32:25;;;;;;;5.25;3.03;;;;;;;19.77;65.64;101556.00;4954601;29;20027;-84
2021/08/18 09:34:51;;;;;;;6.97;3.57;;;;;;;19.92;65.66;101552.06;4937183;29;20046;-83
2021/08/18 09:37:17;;;;;;;4.65;3.70;;;;;;;19.83;66.17;101562.72;4954753;29;20789;-83
2021/08/18 09:39:42;;;;;;;6.22;4.55;;;;;;;19.70;66.53;101562.84;4955011;29;20039;-84
2021/08/18 09:42:32;;;;;;;8.10;5.15;;;;;;;19.58;67.80;101557.47;4954498;29;20027;-86
2021/08/18 09:45:17;;;;;;;8.85;5.38;;;;;;;19.42;68.15;101560.56;4954742;29;20031;-85
2021/08/18 09:47:50;;;;;;;8.88;6.13;;;;;;;19.24;69.03;101560.16;4954741;29;20035;-84
2021/08/18 09:50:16;;;;;;;10.75;5.90;;;;;;;18.92;70.03;101562.53;4954532;29;20561;-84
2021/08/18 09:52:42;;;;;;;9.57;7.35;;;;;;;18.52;71.71;101560.25;4955067;29;20075;-84
2021/08/18 09:55:07;;;;;;;11.60;7.85;;;;;;;18.60;71.64;101562.34;4937744;29;20386;-85
2021/08/18 09:57:33;;;;;;;11.45;7.65;;;;;;;18.69;72.06;101553.59;4954874;29;20313;-84
2021/08/18 09:59:58;;;;;;;13.98;8.52;;;;;;;18.81;72.18;101554.50;4954539;29;20038;-84
2021/08/18 10:02:25;;;;;;;14.88;9.15;;;;;;;18.51;73.04;101561.22;4937791;29;20027;-85
2021/08/18 10:04:50;;;;;;;16.42;9.95;;;;;;;19.00;71.97;101556.59;4954901;29;20032;-84
2021/08/18 10:07:15;;;;;;;20.52;10.18;;;;;;;19.13;70.98;101558.34;4921819;29;20050;-83
2021/08/18 10:09:41;;;;;;;17.80;10.57;;;;;;;19.08;71.38;101560.50;4954384;29;20042;-84
2021/08/18 10:12:07;;;;;;;18.95;10.23;;;;;;;19.30;70.97;101557.00;4921875;29;20023;-84
2021/08/18 10:14:33;;;;;;;17.95;9.60;;;;;;;19.71;68.72;101549.31;4937643;29;20090;-84
2021/08/18 10:16:58;;;;;;;15.73;9.35;;;;;;;19.76;68.56;101543.56;4954842;28;20106;-84
2021/08/18 10:19:23;;;;;;;13.65;9.18;;;;;;;19.91;68.29;101547.69;4941083;29;20474;-84
2021/08/18 10:21:49;;;;;;;15.45;9.18;;;;;;;20.03;67.64;101536.94;4957872;29;20023;-83
2021/08/18 10:24:35;;;;;;;14.13;8.73;;;;;;;20.33;66.16;101539.88;4940794;29;20512;-84
2021/08/18 10:27:01;;;;;;;13.93;8.82;;;;;;;20.20;66.72;101540.91;4957688;29;20027;-83
2021/08/18 10:29:35;;;;;;;16.08;8.80;;;;;;;20.32;66.13;101540.88;4957805;29;20035;-84
2021/08/18 10:32:11;;;;;;;11.57;7.68;;;;;;;20.29;65.60;101541.97;4957649;29;20028;-84
2021/08/18 10:34:37;;;;;;;12.27;7.72;;;;;;;20.41;64.58;101535.56;4941122;29;20445;-84
2021/08/18 10:37:04;;;;;;;15.13;8.38;;;;;;;20.33;64.79;101535.38;4957286;29;20044;-84
2021/08/18 10:39:51;;;;;;;13.50;7.50;;;;;;;20.30;65.32;101535.63;4940357;29;20035;-84
2021/08/18 10:42:43;;;;;;;9.15;6.72;;;;;;;21.24;62.38;101533.13;4957549;29;20027;-84
2021/08/18 10:45:17;;;;;;;13.90;7.57;;;;;;;21.37;61.17;101531.03;4898645;29;20104;-84
2021/08/18 10:47:43;;;;;;;11.18;7.68;;;;;;;21.69;60.92;101542.59;4898720;29;20495;-85
2021/08/18 10:50:11;;;;;;;10.98;7.47;;;;;;;20.84;63.41;101530.19;4900970;29;20048;-85
2021/08/18 10:52:36;;;;;;;13.05;7.75;;;;;;;21.27;62.39;101531.00;4906506;29;20036;-83
2021/08/18 10:55:05;;;;;;;15.05;7.97;;;;;;;21.17;61.62;101527.41;4902520;29;20546;-84
2021/08/18 10:57:40;;;;;;;11.00;7.70;;;;;;;20.87;62.16;101531.75;4906195;29;20044;-84
2021/08/18 11:00:39;;;;;;;14.80;7.78;;;;;;;20.59;63.51;101534.13;4909283;29;20119;-85
2021/08/18 11:03:08;;;;;;;9.82;7.80;;;;;;;20.49;64.22;101532.22;4908107;29;20047;-84
2021/08/18 11:05:36;;;;;;;14.82;8.43;;;;;;;20.16;65.68;101534.94;4886418;29;20073;-85
2021/08/18 11:08:24;;;;;;;15.05;8.63;;;;;;;20.46;65.13;101519.06;4900119;29;20041;-85
2021/08/18 11:10:55;;;;;;;11.63;7.78;;;;;;;20.89;63.31;101532.50;4866869;29;20033;-84
2021/08/18 11:13:49;;;;;;;9.50;7.55;;;;;;;21.05;62.81;101534.75;4897473;29;20484;-85
2021/08/18 11:16:27;;;;;;;14.18;8.13;;;;;;;20.77;62.69;101534.41;4882035;29;20052;-86
2021/08/18 11:18:54;;;;;;;11.70;6.95;;;;;;;20.77;62.09;101539.78;4882153;29;20088;-85
2021/08/18 11:21:24;;;;;;;7.22;6.30;;;;;;;20.84;61.53;101543.63;4907368;29;20058;-85
2021/08/18 11:23:55;;;;;;;9.70;6.15;;;;;;;21.02;61.04;101537.69;4956460;29;20134;-84
2021/08/18 11:26:25;;;;;;;8.40;6.03;;;;;;;20.65;62.08;101529.09;4939920;29;20053;-84